createdAt,value
2022-08-05T00:01:21.806Z,439.1
2022-08-05T00:03:05.554Z,440.2
2022-08-05T00:04:49.245Z,441.7
2022-08-05T00:06:32.941Z,448.3
2022-08-05T00:08:16.650Z,452.4
2022-08-05T00:10:00.367Z,456.6
2022-08-05T00:11:44.035Z,460.5
2022-08-05T00:13:27.727Z,463.2
2022-08-05T00:15:11.427Z,461.3
2022-08-05T00:16:55.160Z,461.1
2022-08-05T00:18:38.851Z,455
2022-08-05T00:20:22.528Z,455.6
2022-08-05T00:22:06.235Z,455.1
2022-08-05T00:23:49.964Z,452.5
2022-08-05T00:25:33.635Z,450.2
2022-08-05T00:27:17.352Z,448.5
2022-08-05T00:29:01.074Z,447.7
2022-08-05T00:30:44.771Z,444.6
2022-08-05T00:32:28.434Z,444
2022-08-05T00:34:12.147Z,446.4
2022-08-05T00:35:55.877Z,447.5
2022-08-05T00:37:39.589Z,449.8
2022-08-05T00:39:23.289Z,448
2022-08-05T00:41:06.968Z,443.6
2022-08-05T00:42:50.659Z,438.3
2022-08-05T00:44:34.370Z,438.8
2022-08-05T00:46:18.062Z,438.6
2022-08-05T00:48:01.787Z,438.9
2022-08-05T00:49:45.499Z,435.2
2022-08-05T00:51:29.170Z,438.8
2022-08-05T00:53:12.895Z,442
2022-08-05T00:54:56.597Z,440.3
2022-08-05T00:56:40.312Z,442.2
2022-08-05T00:58:23.985Z,442
2022-08-05T01:00:07.715Z,439.4
2022-08-05T01:01:51.409Z,441.8
2022-08-05T01:03:35.115Z,441.5
2022-08-05T01:05:18.803Z,439.7
2022-08-05T01:07:02.526Z,437.5
2022-08-05T01:08:46.219Z,434.4
2022-08-05T01:10:29.921Z,430.2
2022-08-05T01:12:13.600Z,428.3
2022-08-05T01:13:57.300Z,425.1
2022-08-05T01:15:41.009Z,423.5
2022-08-05T01:17:24.703Z,420.6
2022-08-05T01:19:08.407Z,422.7
2022-08-05T01:20:52.139Z,420.9
2022-08-05T01:22:35.840Z,415.8
2022-08-05T01:24:19.514Z,418.1
2022-08-05T01:26:03.237Z,418.3
2022-08-05T01:27:46.946Z,416.4
2022-08-05T01:29:30.614Z,413.2
2022-08-05T01:31:14.353Z,413.6
2022-08-05T01:32:58.023Z,415.7
2022-08-05T01:34:41.750Z,419.7
2022-08-05T01:36:25.425Z,422.1
2022-08-05T01:38:09.147Z,421.4
2022-08-05T01:39:52.857Z,419.3
2022-08-05T01:41:36.563Z,418.4
2022-08-05T01:43:20.237Z,418.3
2022-08-05T01:45:03.940Z,417.3
2022-08-05T01:46:47.668Z,415.3
2022-08-05T01:48:31.371Z,415.9
2022-08-05T01:50:15.045Z,416.1
2022-08-05T01:51:58.747Z,418.3
2022-08-05T01:53:42.448Z,416.5
2022-08-05T01:55:26.198Z,414.5
2022-08-05T01:57:09.859Z,413.1
2022-08-05T01:58:53.552Z,414.3
2022-08-05T02:00:37.296Z,411.4
2022-08-05T02:02:20.963Z,410.7
2022-08-05T02:04:04.671Z,410.1
2022-08-05T02:05:48.416Z,409.6
2022-08-05T02:07:32.073Z,409.1
2022-08-05T02:09:15.792Z,408.2
2022-08-05T02:10:59.505Z,404.8
2022-08-05T02:12:43.207Z,405.6
2022-08-05T02:14:26.875Z,406.7
2022-08-05T02:16:11.300Z,406.1
2022-08-05T02:17:54.287Z,406.4
2022-08-05T02:19:37.988Z,408.7
2022-08-05T02:21:21.716Z,408.6
2022-08-05T02:23:05.388Z,409.2
2022-08-05T02:24:49.119Z,409.6
2022-08-05T02:26:32.784Z,408.2
2022-08-05T02:28:16.520Z,409
2022-08-05T02:30:00.198Z,411.5
2022-08-05T02:31:43.896Z,412.5
2022-08-05T02:33:27.626Z,412.7
2022-08-05T02:35:11.307Z,412.3
2022-08-05T02:36:55.030Z,413.2
2022-08-05T02:38:38.748Z,414.4
2022-08-05T02:40:22.444Z,417.2
2022-08-05T02:42:06.131Z,415.3
2022-08-05T02:43:49.817Z,414.7
2022-08-05T02:45:33.509Z,415.9
2022-08-05T02:47:17.225Z,418.3
2022-08-05T02:49:00.924Z,418.9
2022-08-05T02:50:44.651Z,421.1
2022-08-05T02:52:28.353Z,422.1
2022-08-05T02:54:12.025Z,419.3
2022-08-05T02:55:55.728Z,418.8
2022-08-05T02:57:39.425Z,416.4
2022-08-05T02:59:23.127Z,415.3
2022-08-05T03:01:06.827Z,412.3
2022-08-05T03:02:50.600Z,411.4
2022-08-05T03:04:34.272Z,413.8
2022-08-05T03:06:17.938Z,412.2
2022-08-05T03:08:01.666Z,407.5
2022-08-05T03:09:45.337Z,409.4
2022-08-05T03:11:29.047Z,408.2
2022-08-05T03:13:12.749Z,406
2022-08-05T03:14:56.439Z,406.4
2022-08-05T03:16:40.173Z,406.3
2022-08-05T03:18:23.860Z,405.7
2022-08-05T03:20:07.554Z,406
2022-08-05T03:21:51.297Z,406.8
2022-08-05T03:23:34.965Z,407.2
2022-08-05T03:25:18.660Z,408.1
2022-08-05T03:27:02.401Z,410
2022-08-05T03:28:46.086Z,411.3
2022-08-05T03:30:29.792Z,410.4
2022-08-05T03:32:13.472Z,410
2022-08-05T03:35:40.909Z,413.8
2022-08-05T03:37:24.595Z,417.4
2022-08-05T03:39:08.274Z,418
2022-08-05T03:40:52.003Z,415
2022-08-05T03:42:35.693Z,414.8
2022-08-05T03:44:19.412Z,411.4
2022-08-05T03:46:03.109Z,409.7
2022-08-05T03:47:46.799Z,412.2
2022-08-05T03:49:30.487Z,414.4
2022-08-05T03:51:14.194Z,417.1
2022-08-05T03:52:57.924Z,417.7
2022-08-05T03:54:41.602Z,418.2
2022-08-05T03:56:25.309Z,415.9
2022-08-05T03:58:09.011Z,416.2
2022-08-05T03:59:52.698Z,416.4
2022-08-05T04:01:36.423Z,418.2
2022-08-05T04:03:20.117Z,417.4
2022-08-05T04:05:03.803Z,417.1
2022-08-05T04:06:47.508Z,417.2
2022-08-05T04:08:31.206Z,414.7
2022-08-05T04:10:14.922Z,416
2022-08-05T04:11:58.617Z,418
2022-08-05T04:13:42.320Z,419.4
2022-08-05T04:15:26.027Z,416.2
2022-08-05T04:17:09.734Z,411.5
2022-08-05T04:18:53.424Z,413.8
2022-08-05T04:20:37.125Z,412.8
2022-08-05T04:22:20.836Z,412.5
2022-08-05T04:24:04.526Z,414.7
2022-08-05T04:25:48.222Z,416.4
2022-08-05T04:27:31.950Z,415.5
2022-08-05T04:29:15.643Z,414.3
2022-08-05T04:30:59.347Z,413.4
2022-08-05T04:32:43.048Z,415.9
2022-08-05T04:34:26.743Z,416
2022-08-05T04:36:10.445Z,417
2022-08-05T04:37:54.143Z,419.2
2022-08-05T04:39:37.870Z,423.1
2022-08-05T04:41:21.540Z,424.6
2022-08-05T04:43:05.255Z,424.4
2022-08-05T04:44:48.952Z,425.1
2022-08-05T04:46:32.655Z,425
2022-08-05T04:48:16.362Z,426.5
2022-08-05T04:50:00.065Z,432.1
2022-08-05T04:51:43.754Z,432.7
2022-08-05T04:53:27.467Z,436.3
2022-08-05T04:56:54.876Z,436.4
2022-08-05T04:58:38.583Z,437
2022-08-05T05:00:22.271Z,428.8
2022-08-05T05:02:05.970Z,427.6
2022-08-05T05:03:49.675Z,430.4
2022-08-05T05:05:33.379Z,431.9
2022-08-05T05:07:17.113Z,430.6
2022-08-05T05:09:00.775Z,432.4
2022-08-05T05:10:44.483Z,434.9
2022-08-05T05:12:28.198Z,432.8
2022-08-05T05:14:11.916Z,431.5
2022-08-05T05:15:55.591Z,427.9
2022-08-05T05:17:39.291Z,424.3
2022-08-05T05:19:22.987Z,425.5
2022-08-05T05:21:06.698Z,427.5
2022-08-05T05:22:50.405Z,425.4
2022-08-05T05:24:34.108Z,424.6
2022-08-05T05:26:17.816Z,424
2022-08-05T05:28:01.514Z,423.6
2022-08-05T05:29:45.222Z,421.9
2022-08-05T05:31:28.912Z,421.9
2022-08-05T05:33:12.609Z,422.5
2022-08-05T05:34:56.309Z,423.7
2022-08-05T05:36:40.028Z,421.3
2022-08-05T05:38:23.710Z,418.4
2022-08-05T05:40:07.419Z,418.3
2022-08-05T05:41:51.120Z,421.8
2022-08-05T05:43:34.825Z,422.9
2022-08-05T05:45:18.546Z,419.7
2022-08-05T05:47:02.230Z,419.3
2022-08-05T05:48:45.933Z,421.1
2022-08-05T05:50:29.640Z,421.5
2022-08-05T05:52:13.345Z,421
2022-08-05T05:53:57.040Z,419.8
2022-08-05T05:55:40.744Z,420.6
2022-08-05T05:57:24.437Z,419.6
2022-08-05T05:59:08.147Z,419.4
2022-08-05T06:00:51.850Z,419.3
2022-08-05T06:02:35.556Z,419.5
2022-08-05T06:06:02.955Z,422.4
2022-08-05T06:07:46.694Z,421.6
2022-08-05T06:09:30.370Z,421
2022-08-05T06:11:14.060Z,420
2022-08-05T06:12:57.762Z,421.7
2022-08-05T06:14:41.468Z,423.3
2022-08-05T06:16:25.165Z,422.1
2022-08-05T06:18:08.871Z,424.2
2022-08-05T06:19:52.573Z,421.9
2022-08-05T06:21:36.275Z,424.5
2022-08-05T06:23:19.983Z,427.9
2022-08-05T06:25:03.706Z,429.7
2022-08-05T06:26:47.390Z,428.8
2022-08-05T06:28:31.089Z,427.2
2022-08-05T06:30:14.785Z,430.8
2022-08-05T06:31:58.503Z,427.4
2022-08-05T06:33:42.196Z,424.7
2022-08-05T06:35:25.892Z,420.7
2022-08-05T06:37:09.600Z,423.7
2022-08-05T06:38:53.304Z,423.9
2022-08-05T06:40:37.003Z,422.5
2022-08-05T06:42:20.712Z,422.8
2022-08-05T06:44:04.405Z,423.6
2022-08-05T06:45:48.109Z,423.6
2022-08-05T06:47:31.819Z,425.1
2022-08-05T06:49:15.531Z,426.3
2022-08-05T06:50:59.230Z,427.3
2022-08-05T06:52:42.934Z,430
2022-08-05T06:54:26.623Z,429.7
2022-08-05T06:56:10.329Z,428.8
2022-08-05T06:57:54.044Z,428.3
2022-08-05T06:59:37.736Z,426.8
2022-08-05T07:01:21.435Z,426.1
2022-08-05T07:03:05.138Z,426.6
2022-08-05T07:04:48.848Z,426.9
2022-08-05T07:06:32.546Z,429.7
2022-08-05T07:08:16.264Z,426.6
2022-08-05T07:09:59.946Z,423.9
2022-08-05T07:11:43.652Z,423.6
2022-08-05T07:13:27.355Z,424
2022-08-05T07:15:11.053Z,424.2
2022-08-05T07:16:54.753Z,425
2022-08-05T07:18:38.468Z,424.3
2022-08-05T07:20:22.165Z,425.1
2022-08-05T07:22:05.860Z,427.1
2022-08-05T07:23:49.571Z,426.2
2022-08-05T07:25:33.268Z,424.8
2022-08-05T07:27:16.963Z,426.4
2022-08-05T07:29:00.661Z,433.2
2022-08-05T07:30:44.374Z,439.2
2022-08-05T07:32:28.065Z,440.7
2022-08-05T07:34:13.867Z,437.8
2022-08-05T07:35:55.478Z,436.3
2022-08-05T07:37:39.174Z,433.4
2022-08-05T07:39:22.881Z,429.9
2022-08-05T07:41:06.581Z,428.8
2022-08-05T07:42:50.298Z,429.1
2022-08-05T07:44:33.998Z,430.5
2022-08-05T07:46:17.680Z,430.8
2022-08-05T07:48:01.394Z,431.7
2022-08-05T07:49:45.098Z,430.2
2022-08-05T07:51:28.790Z,433.7
2022-08-05T07:53:12.491Z,432.2
2022-08-05T07:54:56.196Z,431.6
2022-08-05T07:56:39.892Z,432.2
2022-08-05T07:58:23.598Z,431.1
2022-08-05T08:00:07.301Z,432.1
2022-08-05T08:01:51.003Z,433.9
2022-08-05T08:03:34.709Z,432.6
2022-08-05T08:05:18.402Z,436.7
2022-08-05T08:07:02.114Z,438.3
2022-08-05T08:08:45.816Z,434.4
2022-08-05T08:10:29.513Z,434.5
2022-08-05T08:12:13.216Z,438.2
2022-08-05T08:13:56.921Z,437.9
2022-08-05T08:15:40.618Z,437.1
2022-08-05T08:17:24.321Z,441.7
2022-08-05T08:19:08.035Z,438.5
2022-08-05T08:20:51.725Z,436.8
2022-08-05T08:22:35.455Z,438.5
2022-08-05T08:26:02.848Z,440.5
2022-08-05T08:27:46.547Z,439.7
2022-08-05T08:29:30.238Z,438.3
2022-08-05T08:31:13.951Z,442.5
2022-08-05T08:32:57.648Z,443.8
2022-08-05T08:34:41.348Z,445.9
2022-08-05T08:36:25.050Z,443.5
2022-08-05T08:38:08.751Z,442.7
2022-08-05T08:39:52.463Z,439.9
2022-08-05T08:41:36.162Z,439.8
2022-08-05T08:43:19.848Z,437.3
2022-08-05T08:45:03.561Z,439.7
2022-08-05T08:46:47.265Z,442.7
2022-08-05T08:48:30.967Z,442.9
2022-08-05T08:50:14.666Z,443.6
2022-08-05T08:51:58.375Z,442.6
2022-08-05T08:53:42.063Z,443.1
2022-08-05T08:55:25.770Z,443.8
2022-08-05T08:57:09.469Z,447.2
2022-08-05T08:58:53.178Z,445.7
2022-08-05T09:00:36.886Z,444.4
2022-08-05T09:02:20.585Z,446.8
2022-08-05T09:04:04.280Z,446.1
2022-08-05T09:05:47.989Z,447.6
2022-08-05T09:07:31.679Z,451.7
2022-08-05T09:09:15.382Z,454.2
2022-08-05T09:10:59.091Z,453.6
2022-08-05T09:12:42.786Z,456
2022-08-05T09:14:26.495Z,455.1
2022-08-05T09:16:10.199Z,456
2022-08-05T09:17:53.897Z,455.5
2022-08-05T09:19:37.611Z,455
2022-08-05T09:21:21.296Z,452.6
2022-08-05T09:23:05.001Z,449.6
2022-08-05T09:24:48.710Z,446.8
2022-08-05T09:26:32.407Z,446.7
2022-08-05T09:28:16.110Z,446.5
2022-08-05T09:29:59.816Z,446.7
2022-08-05T09:31:43.519Z,448.8
2022-08-05T09:33:27.238Z,450.5
2022-08-05T09:35:10.916Z,450.3
2022-08-05T09:36:54.631Z,452.7
2022-08-05T09:38:38.329Z,453.6
2022-08-05T09:40:22.020Z,450.3
2022-08-05T09:42:05.732Z,444.1
2022-08-05T09:43:49.439Z,439.2
2022-08-05T09:45:33.130Z,434.7
2022-08-05T09:47:16.841Z,434.7
2022-08-05T09:49:00.558Z,430.8
2022-08-05T09:50:44.252Z,430.6
2022-08-05T09:52:27.949Z,434.4
2022-08-05T09:54:11.637Z,437.6
2022-08-05T09:55:55.352Z,439.7
2022-08-05T09:57:39.061Z,438.7
2022-08-05T09:59:22.757Z,441
2022-08-05T10:01:06.455Z,441.2
2022-08-05T10:02:50.157Z,442.8
2022-08-05T10:04:33.858Z,446.4
2022-08-05T10:06:17.569Z,451.1
2022-08-05T10:08:01.264Z,450.4
2022-08-05T10:09:44.971Z,452
2022-08-05T10:11:28.670Z,455.1
2022-08-05T10:13:12.363Z,454.7
2022-08-05T10:14:56.072Z,455.3
2022-08-05T10:16:39.774Z,455.7
2022-08-05T10:18:23.472Z,458.3
2022-08-05T10:20:07.180Z,460.4
2022-08-05T10:21:50.875Z,459.1
2022-08-05T10:23:34.585Z,461.7
2022-08-05T10:25:18.281Z,465.2
2022-08-05T10:27:02.017Z,463.3
2022-08-05T10:28:45.709Z,466
2022-08-05T10:30:29.385Z,467.5
2022-08-05T10:32:13.088Z,466.6
2022-08-05T10:33:56.802Z,464.6
2022-08-05T10:35:40.513Z,463.1
2022-08-05T10:37:24.190Z,465.7
2022-08-05T10:39:07.905Z,466.2
2022-08-05T10:40:51.600Z,468.4
2022-08-05T10:42:35.299Z,470.4
2022-08-05T10:44:19.011Z,470.5
2022-08-05T10:46:02.719Z,472.1
2022-08-05T10:47:46.407Z,473.7
2022-08-05T10:49:30.107Z,468.2
2022-08-05T10:51:13.813Z,468.1
2022-08-05T10:52:57.510Z,470
2022-08-05T10:54:41.208Z,472.5
2022-08-05T10:56:24.918Z,469.7
2022-08-05T10:58:08.626Z,470.7
2022-08-05T10:59:52.314Z,474.5
2022-08-05T11:01:44.703Z,476.5
2022-08-05T11:03:19.732Z,476.3
2022-08-05T11:05:03.426Z,475
2022-08-05T11:06:47.128Z,473.6
2022-08-05T11:08:30.831Z,474.9
2022-08-05T11:10:14.522Z,478.7
2022-08-05T11:11:58.235Z,477
2022-08-05T11:13:41.927Z,478.1
2022-08-05T11:15:25.633Z,481.9
2022-08-05T11:17:09.348Z,477.4
2022-08-05T11:18:53.058Z,477.9
2022-08-05T11:20:36.750Z,479.2
2022-08-05T11:22:20.447Z,476.4
2022-08-05T11:24:04.166Z,477
2022-08-05T11:25:47.850Z,477.3
2022-08-05T11:27:31.554Z,476.3
2022-08-05T11:29:15.252Z,476
2022-08-05T11:30:58.956Z,476.8
2022-08-05T11:32:42.669Z,474.7
2022-08-05T11:34:26.375Z,470.5
2022-08-05T11:36:10.088Z,470.3
2022-08-05T11:37:53.779Z,468.8
2022-08-05T11:39:37.472Z,469.3
2022-08-05T11:41:21.178Z,471.9
2022-08-05T11:43:04.874Z,472
2022-08-05T11:44:48.572Z,471.3
2022-08-05T11:46:32.278Z,470.7
2022-08-05T11:48:15.976Z,473.1
2022-08-05T11:49:59.683Z,473.9
2022-08-05T11:51:43.382Z,475.1
2022-08-05T11:53:27.138Z,473.7
2022-08-05T11:55:10.833Z,471.6
2022-08-05T11:56:54.493Z,470.8
2022-08-05T11:58:38.202Z,469.5
2022-08-05T12:00:21.894Z,469.7
2022-08-05T12:02:05.593Z,472.3
2022-08-05T12:03:49.307Z,470.9
2022-08-05T12:05:33.004Z,469.2
2022-08-05T12:07:16.708Z,468.9
2022-08-05T12:09:00.421Z,467
2022-08-05T12:10:44.107Z,466.1
2022-08-05T12:12:27.828Z,462.3
2022-08-05T12:14:11.514Z,463.1
2022-08-05T12:15:55.211Z,464.3
2022-08-05T12:17:38.913Z,464
2022-08-05T12:19:22.615Z,463.8
2022-08-05T12:21:06.315Z,463.5
2022-08-05T12:22:50.019Z,462.6
2022-08-05T12:24:33.722Z,460.1
2022-08-05T12:26:17.423Z,461.5
2022-08-05T12:28:01.148Z,460.3
2022-08-05T12:29:44.827Z,458.8
2022-08-05T12:31:28.533Z,460.3
2022-08-05T12:33:12.239Z,463.5
2022-08-05T12:34:55.928Z,467.8
2022-08-05T12:36:39.640Z,471.8
2022-08-05T12:38:23.374Z,469.8
2022-08-05T12:40:07.040Z,468.5
2022-08-05T12:41:50.742Z,465.3
2022-08-05T12:43:34.445Z,467.1
2022-08-05T12:45:18.150Z,469.8
2022-08-05T12:47:01.849Z,470.9
2022-08-05T12:48:45.540Z,469.9
2022-08-05T12:50:29.249Z,468.1
2022-08-05T12:52:12.953Z,468.5
2022-08-05T12:53:56.765Z,469
2022-08-05T12:55:40.367Z,468.9
2022-08-05T12:57:24.061Z,468.7
2022-08-05T12:59:07.773Z,469.9
2022-08-05T13:00:51.465Z,468
2022-08-05T13:02:35.178Z,470.5
2022-08-05T13:04:18.866Z,470.8
2022-08-05T13:06:02.589Z,471.1
2022-08-05T13:07:46.264Z,471.7
2022-08-05T13:09:29.969Z,470.3
2022-08-05T13:11:13.676Z,471.2
2022-08-05T13:12:57.374Z,474
2022-08-05T13:14:41.086Z,473.5
2022-08-05T13:16:24.773Z,466.4
2022-08-05T13:18:08.479Z,460.2
2022-08-05T13:19:52.202Z,456.1
2022-08-05T13:21:35.883Z,455.7
2022-08-05T13:23:19.584Z,454.6
2022-08-05T13:25:03.292Z,455.5
2022-08-05T13:26:47.000Z,458.1
2022-08-05T13:28:30.687Z,462.3
2022-08-05T13:30:14.400Z,472.6
2022-08-05T13:31:58.104Z,475.5
2022-08-05T13:33:41.803Z,477.2
2022-08-05T13:35:25.497Z,475.5
2022-08-05T13:37:09.203Z,476.1
2022-08-05T13:38:52.901Z,479.2
2022-08-05T13:40:36.607Z,477.7
2022-08-05T13:42:20.311Z,482.8
2022-08-05T13:44:04.010Z,484
2022-08-05T13:45:47.715Z,481.2
2022-08-05T13:47:31.416Z,482.1
2022-08-05T13:49:15.123Z,485.6
2022-08-05T13:50:58.817Z,491.1
2022-08-05T13:52:42.522Z,491.5
2022-08-05T13:54:26.233Z,490
2022-08-05T13:56:09.929Z,492.4
2022-08-05T13:57:53.625Z,500.5
2022-08-05T13:59:37.034Z,505
2022-08-05T14:01:20.722Z,510.4
2022-08-05T14:03:04.442Z,513.1
2022-08-05T14:04:48.129Z,516.4
2022-08-05T14:06:31.830Z,523.5
2022-08-05T14:09:59.257Z,528.3
2022-08-05T14:11:42.939Z,524.8
2022-08-05T14:13:26.633Z,525.7
2022-08-05T14:15:10.353Z,525.2
2022-08-05T14:16:54.044Z,527.4
2022-08-05T14:18:37.736Z,530.7
2022-08-05T14:20:21.448Z,535.3
2022-08-05T14:22:05.145Z,536.6
2022-08-05T14:23:48.862Z,535
2022-08-05T14:25:32.563Z,533.5
2022-08-05T14:27:16.273Z,527.3
2022-08-05T14:28:59.958Z,522
2022-08-05T14:30:43.669Z,517.5
2022-08-05T14:32:27.374Z,514.6
2022-08-05T14:34:11.076Z,511.6
2022-08-05T14:35:54.765Z,510.1
2022-08-05T14:37:38.461Z,505.9
2022-08-05T14:39:22.166Z,502.9
2022-08-05T14:41:05.897Z,498.8
2022-08-05T14:42:49.594Z,494.4
2022-08-05T14:44:33.275Z,493.6
2022-08-05T14:46:16.988Z,490.3
2022-08-05T14:48:00.672Z,489.8
2022-08-05T14:49:44.387Z,488.5
2022-08-05T14:51:28.075Z,487.5
2022-08-05T14:53:11.801Z,491.1
2022-08-05T14:54:55.501Z,492.1
2022-08-05T14:56:39.214Z,490.3
2022-08-05T14:58:22.891Z,487.6
2022-08-05T15:00:06.593Z,486.6
2022-08-05T15:01:50.305Z,484.4
2022-08-05T15:03:33.998Z,486.3
2022-08-05T15:05:17.717Z,485.3
2022-08-05T15:07:01.435Z,486.4
2022-08-05T15:08:45.109Z,484.6
2022-08-05T15:10:28.813Z,484.8
2022-08-05T15:12:12.556Z,483.4
2022-08-05T15:13:56.211Z,481.6
2022-08-05T15:15:39.906Z,482.1
2022-08-05T15:17:23.632Z,485.7
2022-08-05T15:19:07.316Z,484.4
2022-08-05T15:20:51.053Z,485.9
2022-08-05T15:22:34.738Z,485.2
2022-08-05T15:24:18.428Z,483.9
2022-08-05T15:26:02.133Z,483.6
2022-08-05T15:27:45.840Z,486.9
2022-08-05T15:29:29.528Z,486.6
2022-08-05T15:31:13.252Z,485.9
2022-08-05T15:32:56.934Z,485.2
2022-08-05T15:34:40.652Z,484.6
2022-08-05T15:36:24.345Z,485.3
2022-08-05T15:38:08.047Z,492.5
2022-08-05T15:39:51.749Z,490.3
2022-08-05T15:41:35.450Z,488.1
2022-08-05T15:43:19.145Z,485.2
2022-08-05T15:45:02.865Z,482.7
2022-08-05T15:46:46.548Z,482.8
2022-08-05T15:48:30.286Z,482.3
2022-08-05T15:50:13.970Z,479.5
2022-08-05T15:51:57.656Z,479.8
2022-08-05T15:53:41.362Z,479.2
2022-08-05T15:55:25.058Z,482
2022-08-05T15:57:08.762Z,482.9
2022-08-05T15:58:52.476Z,482.2
2022-08-05T16:00:36.182Z,481.3
2022-08-05T16:02:19.884Z,482.2
2022-08-05T16:04:03.602Z,485.1
2022-08-05T16:05:47.285Z,487.6
2022-08-05T16:07:30.982Z,490.4
2022-08-05T16:09:14.672Z,489.6
2022-08-05T16:10:58.393Z,490
2022-08-05T16:12:42.090Z,491.1
2022-08-05T16:14:25.795Z,491.8
2022-08-05T16:16:09.515Z,497.6
2022-08-05T16:17:53.188Z,510.6
2022-08-05T16:19:36.892Z,507.9
2022-08-05T16:21:20.592Z,509.5
2022-08-05T16:23:04.294Z,511.2
2022-08-05T16:24:48.015Z,514.4
2022-08-05T16:26:31.691Z,515.6
2022-08-05T16:28:15.422Z,516.7
2022-08-05T16:29:59.107Z,514.3
2022-08-05T16:31:42.817Z,513.9
2022-08-05T16:33:26.499Z,516.2
2022-08-05T16:35:10.234Z,514.7
2022-08-05T16:36:53.917Z,516.4
2022-08-05T16:38:37.599Z,514.1
2022-08-05T16:40:21.305Z,515.5
2022-08-05T16:42:05.009Z,514.8
2022-08-05T16:43:48.733Z,515.2
2022-08-05T16:45:32.421Z,520
2022-08-05T16:47:16.124Z,520.6
2022-08-05T16:48:59.853Z,518.1
2022-08-05T16:50:43.526Z,519.4
2022-08-05T16:52:27.223Z,516.8
2022-08-05T16:54:10.951Z,517
2022-08-05T16:55:54.656Z,516.8
2022-08-05T16:57:38.351Z,515
2022-08-05T16:59:22.041Z,517
2022-08-05T17:01:05.732Z,516.9
2022-08-05T17:02:49.440Z,513.9
2022-08-05T17:04:33.176Z,514.8
2022-08-05T17:06:16.863Z,515.5
2022-08-05T17:08:00.572Z,513.6
2022-08-05T17:09:44.267Z,516.3
2022-08-05T17:11:27.958Z,518.2
2022-08-05T17:13:11.655Z,516.5
2022-08-05T17:14:55.364Z,520
2022-08-05T17:16:39.072Z,523.5
2022-08-05T17:18:22.763Z,525.3
2022-08-05T17:20:06.465Z,530
2022-08-05T17:21:50.163Z,533.7
2022-08-05T17:23:33.871Z,537.1
2022-08-05T17:25:17.577Z,542.8
2022-08-05T17:27:01.287Z,549.7
2022-08-05T17:28:45.003Z,553.5
2022-08-05T17:30:28.674Z,555
2022-08-05T17:32:12.412Z,558.9
2022-08-05T17:33:56.099Z,556.6
2022-08-05T17:35:39.772Z,555.4
2022-08-05T17:37:23.483Z,557
2022-08-05T17:39:07.184Z,561.2
2022-08-05T17:40:50.900Z,562.1
2022-08-05T17:42:34.607Z,564.1
2022-08-05T17:44:18.290Z,565.9
2022-08-05T17:46:01.990Z,566.1
2022-08-05T17:47:45.685Z,568
2022-08-05T17:49:29.407Z,574.9
2022-08-05T17:51:13.099Z,574.5
2022-08-05T17:52:56.831Z,574.6
2022-08-05T17:54:40.529Z,573.1
2022-08-05T17:56:24.228Z,547.4
2022-08-05T17:58:07.922Z,499.4
2022-08-05T17:59:51.609Z,491.9
2022-08-05T18:01:35.302Z,502.1
2022-08-05T18:03:19.009Z,514.7
2022-08-05T18:05:02.733Z,512.9
2022-08-05T18:06:46.400Z,501.8
2022-08-05T18:08:30.129Z,484.2
2022-08-05T18:10:13.813Z,448.8
2022-08-05T18:11:57.541Z,436.3
2022-08-05T18:13:41.222Z,427.1
2022-08-05T18:17:08.619Z,415.8
2022-08-05T18:18:52.362Z,411.3
2022-08-05T18:20:36.073Z,403.5
2022-08-05T18:22:19.734Z,398.7
2022-08-05T18:24:03.468Z,400.7
2022-08-05T18:25:47.158Z,402.3
2022-08-05T18:27:30.854Z,403.5
2022-08-05T18:29:14.550Z,403.4
2022-08-05T18:30:58.268Z,401.6
2022-08-05T18:32:41.966Z,402.8
2022-08-05T18:34:25.649Z,400.5
2022-08-05T18:36:09.365Z,401
2022-08-05T18:37:53.073Z,404.5
2022-08-05T18:39:36.762Z,405.9
2022-08-05T18:43:04.167Z,403.8
2022-08-05T18:44:47.851Z,400.6
2022-08-05T18:46:31.577Z,399.4
2022-08-05T18:48:15.258Z,399.4
2022-08-05T18:49:58.961Z,398.3
2022-08-05T18:51:42.657Z,400.7
2022-08-05T18:53:26.363Z,400.3
2022-08-05T18:55:10.081Z,400.4
2022-08-05T18:56:53.765Z,399.8
2022-08-05T18:58:37.468Z,400.2
2022-08-05T19:00:21.197Z,403.2
2022-08-05T19:02:04.880Z,403.9
2022-08-05T19:03:48.569Z,404.1
2022-08-05T19:05:32.279Z,404.1
2022-08-05T19:07:15.975Z,404.6
2022-08-05T19:08:59.679Z,403
2022-08-05T19:10:43.400Z,403.6
2022-08-05T19:12:27.090Z,404.3
2022-08-05T19:14:10.783Z,403.9
2022-08-05T19:15:54.498Z,401.3
2022-08-05T19:17:38.183Z,405
2022-08-05T19:19:21.894Z,408.2
2022-08-05T19:21:05.596Z,405.2
2022-08-05T19:22:49.289Z,406.2
2022-08-05T19:24:33.000Z,406.6
2022-08-05T19:26:16.767Z,408.8
2022-08-05T19:28:00.400Z,410.5
2022-08-05T19:29:44.099Z,409.7
2022-08-05T19:31:27.803Z,410.5
2022-08-05T19:33:11.510Z,413.6
2022-08-05T19:34:55.223Z,413.1
2022-08-05T19:36:38.909Z,413.1
2022-08-05T19:38:22.632Z,410.3
2022-08-05T19:40:06.333Z,406.6
2022-08-05T19:41:50.016Z,406.5
2022-08-05T19:43:33.727Z,406.8
2022-08-05T19:45:17.430Z,405.3
2022-08-05T19:47:01.122Z,404.7
2022-08-05T19:48:44.822Z,408.4
2022-08-05T19:50:28.527Z,407.9
2022-08-05T19:52:12.239Z,406.8
2022-08-05T19:53:55.936Z,406.3
2022-08-05T19:55:39.662Z,408.7
2022-08-05T19:57:23.339Z,414.1
2022-08-05T19:59:07.055Z,417.9
2022-08-05T20:00:50.752Z,419
2022-08-05T20:02:34.451Z,419.8
2022-08-05T20:04:18.144Z,417.3
2022-08-05T20:06:01.850Z,417.3
2022-08-05T20:07:45.551Z,418.1
2022-08-05T20:11:12.951Z,413.9
2022-08-05T20:12:56.652Z,411
2022-08-05T20:14:40.357Z,413.2
2022-08-05T20:16:24.063Z,417.8
2022-08-05T20:18:07.767Z,415.7
2022-08-05T20:19:51.466Z,417.2
2022-08-05T20:21:35.178Z,421.6
2022-08-05T20:23:18.867Z,425.9
2022-08-05T20:25:02.572Z,422.8
2022-08-05T20:26:46.274Z,424
2022-08-05T20:28:29.972Z,425.9
2022-08-05T20:30:13.673Z,427
2022-08-05T20:31:57.385Z,427
2022-08-05T20:33:41.077Z,424.6
2022-08-05T20:35:24.806Z,423.6
2022-08-05T20:38:52.185Z,422.2
2022-08-05T20:40:35.893Z,425.8
2022-08-05T20:42:19.604Z,425.8
2022-08-05T20:44:03.286Z,428.3
2022-08-05T20:45:46.982Z,428.2
2022-08-05T20:47:30.688Z,429
2022-08-05T20:50:58.117Z,426.9
2022-08-05T20:52:41.797Z,426.7
2022-08-05T20:54:25.504Z,424
2022-08-05T20:56:09.207Z,421.2
2022-08-05T20:57:52.903Z,421.5
2022-08-05T20:59:36.599Z,421.5
2022-08-05T21:01:20.305Z,422.8
2022-08-05T21:03:04.009Z,421.2
2022-08-05T21:04:47.713Z,419.5
2022-08-05T21:06:31.406Z,422.4
2022-08-05T21:09:58.825Z,415.7
2022-08-05T21:11:42.522Z,413.7
2022-08-05T21:13:26.234Z,413
2022-08-05T21:15:09.944Z,415.1
2022-08-05T21:16:53.627Z,408.5
2022-08-05T21:18:37.333Z,401.4
2022-08-05T21:20:21.028Z,397.3
2022-08-05T21:22:04.730Z,397.7
2022-08-05T21:23:48.433Z,401
2022-08-05T21:25:32.137Z,405.8
2022-08-05T21:27:15.852Z,414.4
2022-08-05T21:28:59.548Z,413.5
2022-08-05T21:30:43.245Z,409.7
2022-08-05T21:32:26.942Z,412.3
2022-08-05T21:34:10.656Z,411.9
2022-08-05T21:35:54.347Z,411.2
2022-08-05T21:37:38.052Z,411
2022-08-05T21:39:21.752Z,411.5
2022-08-05T21:41:05.460Z,411.4
2022-08-05T21:42:49.174Z,414.2
2022-08-05T21:44:32.865Z,416.4
2022-08-05T21:46:16.567Z,417.1
2022-08-05T21:48:00.270Z,420.7
2022-08-05T21:49:43.973Z,422.4
2022-08-05T21:51:27.670Z,421.3
2022-08-05T21:53:11.391Z,418.4
2022-08-05T21:54:55.066Z,412.9
2022-08-05T21:56:38.778Z,411.7
2022-08-05T21:58:22.490Z,413.9
2022-08-05T22:00:06.194Z,413.7
2022-08-05T22:01:49.907Z,407.8
2022-08-05T22:03:33.590Z,407.8
2022-08-05T22:05:17.315Z,411.9
2022-08-05T22:07:00.996Z,411.7
2022-08-05T22:08:44.694Z,410.8
2022-08-05T22:10:28.398Z,410
2022-08-05T22:12:12.098Z,411.6
2022-08-05T22:13:55.794Z,412.2
2022-08-05T22:15:39.506Z,410.5
2022-08-05T22:17:23.202Z,409.9
2022-08-05T22:19:06.914Z,409.5
2022-08-05T22:20:50.613Z,411.8
2022-08-05T22:22:34.310Z,414.8
2022-08-05T22:24:18.022Z,416.1
2022-08-05T22:26:01.733Z,413
2022-08-05T22:27:45.423Z,411.6
2022-08-05T22:29:29.122Z,413.5
2022-08-05T22:31:12.837Z,416.1
2022-08-05T22:32:56.525Z,419.5
2022-08-05T22:34:40.237Z,421.5
2022-08-05T22:36:23.934Z,419.2
2022-08-05T22:38:07.648Z,418.4
2022-08-05T22:39:51.346Z,419.6
2022-08-05T22:41:35.040Z,416.1
2022-08-05T22:43:18.746Z,414.5